createdAt,value
2017-04-02T00:00:40.232Z,57.59
2017-04-02T00:01:20.642Z,57.5
2017-04-02T00:02:01.097Z,57.4
2017-04-02T00:02:41.491Z,57.78
2017-04-02T00:03:21.908Z,57.59
2017-04-02T00:04:02.331Z,57.78
2017-04-02T00:04:42.766Z,57.59
2017-04-02T00:06:44.778Z,57.59
2017-04-02T00:07:33.601Z,57.78
2017-04-02T00:08:22.281Z,57.5
2017-04-02T00:09:12.080Z,57.59
2017-04-02T00:09:59.703Z,57.4
2017-04-02T00:10:47.853Z,57.78
2017-04-02T00:11:36.433Z,57.59
2017-04-02T00:12:24.869Z,57.78
2017-04-02T00:13:13.371Z,57.75
2017-04-02T00:14:02.210Z,58.14
2017-04-02T00:14:51.078Z,58.04
2017-04-02T00:15:39.440Z,57.94
2017-04-02T00:16:28.209Z,57.75
2017-04-02T00:17:16.689Z,57.94
2017-04-02T00:18:05.703Z,57.94
2017-04-02T00:18:53.908Z,57.85
2017-04-02T00:19:42.426Z,57.75
2017-04-02T00:20:31.627Z,57.75
2017-04-02T00:21:20.260Z,57.85
2017-04-02T00:22:08.345Z,57.65
2017-04-02T00:22:56.966Z,57.94
2017-04-02T00:23:46.159Z,57.75
2017-04-02T00:24:34.358Z,57.85
2017-04-02T00:25:23.291Z,57.65
2017-04-02T00:26:11.461Z,57.85
2017-04-02T00:27:00.275Z,58.23
2017-04-02T00:27:48.730Z,58.33
2017-04-02T00:28:37.513Z,58.51
2017-04-02T00:29:25.885Z,58.39
2017-04-02T00:30:14.664Z,58.29
2017-04-02T00:31:03.097Z,58.39
2017-04-02T00:31:52.455Z,58.39
2017-04-02T00:32:40.345Z,58.77
2017-04-02T00:33:29.204Z,59.06
2017-04-02T00:34:18.191Z,58.77
2017-04-02T00:35:06.675Z,58.97
2017-04-02T00:35:55.397Z,59.16
2017-04-02T00:36:43.784Z,59.25
2017-04-02T00:37:32.202Z,59.06
2017-04-02T00:38:21.063Z,59.34
2017-04-02T00:39:11.457Z,59.06
2017-04-02T00:39:59.786Z,59.34
2017-04-02T00:40:48.432Z,58.97
2017-04-02T00:41:37.388Z,58.77
2017-04-02T00:42:25.894Z,58.87
2017-04-02T00:43:14.963Z,58.87
2017-04-02T00:44:03.248Z,58.87
2017-04-02T00:44:52.065Z,58.97
2017-04-02T00:45:40.568Z,58.87
2017-04-02T00:46:28.906Z,59.06
2017-04-02T00:47:17.647Z,59.16
2017-04-02T00:48:06.230Z,59.06
2017-04-02T00:48:54.768Z,58.97
2017-04-02T00:49:43.378Z,58.97
2017-04-02T00:50:32.117Z,58.87
2017-04-02T00:51:21.014Z,58.87
2017-04-02T00:52:09.208Z,58.97
2017-04-02T00:52:57.973Z,58.97
2017-04-02T00:53:46.407Z,59.06
2017-04-02T00:54:35.308Z,59.25
2017-04-02T00:55:24.111Z,59.34
2017-04-02T00:56:12.401Z,59.34
2017-04-02T00:57:01.659Z,59.25
2017-04-02T00:57:50.154Z,59.06
2017-04-02T00:58:38.502Z,58.97
2017-04-02T00:59:26.953Z,59.16
2017-04-02T01:00:15.791Z,58.87
2017-04-02T01:01:04.384Z,58.87
2017-04-02T01:01:51.969Z,58.87
2017-04-02T01:02:39.038Z,58.97
2017-04-02T01:03:27.693Z,59.16
2017-04-02T01:04:16.579Z,58.87
2017-04-02T01:05:00.907Z,58.87
2017-04-02T01:05:41.290Z,58.97
2017-04-02T01:06:21.745Z,58.97
2017-04-02T01:07:02.111Z,58.97
2017-04-02T01:07:42.538Z,58.97
2017-04-02T01:08:22.967Z,59.06
2017-04-02T01:09:03.351Z,58.97
2017-04-02T01:09:43.817Z,58.97
2017-04-02T01:10:24.189Z,58.97
2017-04-02T01:11:04.640Z,58.77
2017-04-02T01:11:44.996Z,59.16
2017-04-02T01:12:25.394Z,58.87
2017-04-02T01:13:05.821Z,59.06
2017-04-02T01:13:46.232Z,58.97
2017-04-02T01:14:26.613Z,59.25
2017-04-02T01:15:07.048Z,59.06
2017-04-02T01:15:47.406Z,59.25
2017-04-02T01:16:27.807Z,59.63
2017-04-02T01:17:08.220Z,58.68
2017-04-02T01:17:48.655Z,59.25
2017-04-02T01:18:29.090Z,58.97
2017-04-02T01:19:09.486Z,59.82
2017-04-02T01:19:49.906Z,59.63
2017-04-02T01:20:30.352Z,59.16
2017-04-02T01:21:10.775Z,59.53
2017-04-02T01:21:51.245Z,59.53
2017-04-02T01:22:31.595Z,59.53
2017-04-02T01:23:12.033Z,59.53
2017-04-02T01:23:52.469Z,58.97
2017-04-02T01:24:32.866Z,59.06
2017-04-02T01:25:13.230Z,59.06
2017-04-02T01:25:53.634Z,59.16
2017-04-02T01:26:34.058Z,59.44
2017-04-02T01:27:14.457Z,59.44
2017-04-02T01:27:54.903Z,59.06
2017-04-02T01:28:35.270Z,59.16
2017-04-02T01:29:15.703Z,59.25
2017-04-02T01:29:56.107Z,59.16
2017-04-02T01:30:36.524Z,59.16
2017-04-02T01:31:16.931Z,58.77
2017-04-02T01:31:57.313Z,59.16
2017-04-02T01:32:37.767Z,59.06
2017-04-02T01:33:18.139Z,59.16
2017-04-02T01:33:58.548Z,59.06
2017-04-02T01:34:38.961Z,59.06
2017-04-02T01:35:19.392Z,59.16
2017-04-02T01:35:59.789Z,59.25
2017-04-02T01:36:40.189Z,59.25
2017-04-02T01:37:20.572Z,58.77
2017-04-02T01:38:00.995Z,59.16
2017-04-02T01:38:41.396Z,59.06
2017-04-02T01:39:21.849Z,59.53
2017-04-02T01:40:02.695Z,59.63
2017-04-02T01:40:43.137Z,58.87
2017-04-02T01:41:23.510Z,59.16
2017-04-02T01:42:03.918Z,59.53
2017-04-02T01:42:44.345Z,59.44
2017-04-02T01:43:24.761Z,59.53
2017-04-02T01:44:05.199Z,59.34
2017-04-02T01:44:45.578Z,59.44
2017-04-02T01:45:25.981Z,59.34
2017-04-02T01:46:06.370Z,59.34
2017-04-02T01:46:46.765Z,59.44
2017-04-02T01:47:27.209Z,59.44
2017-04-02T01:48:07.609Z,60.02
2017-04-02T01:48:48.007Z,59.73
2017-04-02T01:49:28.398Z,59.82
2017-04-02T01:50:08.839Z,59.92
2017-04-02T01:50:49.208Z,59.89
2017-04-02T01:51:29.607Z,59.73
2017-04-02T01:52:09.999Z,59.82
2017-04-02T01:52:50.409Z,59.92
2017-04-02T01:55:12.887Z,59.82
2017-04-02T01:56:01.178Z,59.89
2017-04-02T01:56:49.867Z,59.7
2017-04-02T01:57:38.163Z,59.79
2017-04-02T01:58:27.407Z,59.79
2017-04-02T01:59:15.733Z,59.99
2017-04-02T02:00:04.103Z,59.99
2017-04-02T02:00:52.649Z,60.46
2017-04-02T02:01:41.645Z,60.08
2017-04-02T02:02:30.052Z,60.55
2017-04-02T02:03:18.941Z,60.08
2017-04-02T02:04:07.207Z,59.89
2017-04-02T02:04:56.058Z,60.27
2017-04-02T02:05:44.333Z,60.17
2017-04-02T02:06:33.407Z,60.17
2017-04-02T02:07:21.701Z,60.08
2017-04-02T02:08:10.492Z,60.27
2017-04-02T02:08:59.086Z,60.17
2017-04-02T02:09:47.942Z,60.17
2017-04-02T02:10:36.371Z,60.17
2017-04-02T02:11:24.986Z,60.27
2017-04-02T02:12:13.994Z,60.27
2017-04-02T02:13:01.950Z,60.36
2017-04-02T02:13:50.796Z,60.17
2017-04-02T02:14:39.572Z,60.27
2017-04-02T02:15:28.416Z,60.17
2017-04-02T02:16:16.702Z,60.27
2017-04-02T02:17:05.195Z,60.08
2017-04-02T02:17:54.709Z,60.55
2017-04-02T02:18:42.467Z,60.36
2017-04-02T02:19:31.604Z,60.36
2017-04-02T02:20:20.142Z,60.36
2017-04-02T02:21:08.622Z,60.36
2017-04-02T02:21:57.089Z,60.36
2017-04-02T02:22:45.534Z,60.46
2017-04-02T02:23:34.694Z,60.46
2017-04-02T02:24:23.203Z,60.84
2017-04-02T02:25:11.924Z,60.46
2017-04-02T02:26:00.078Z,60.46
2017-04-02T02:26:49.007Z,60.65
2017-04-02T02:27:37.251Z,60.75
2017-04-02T02:28:25.925Z,60.55
2017-04-02T02:29:13.997Z,60.75
2017-04-02T02:30:01.789Z,60.65
2017-04-02T02:31:54.189Z,60.94
2017-04-02T02:32:42.503Z,60.65
2017-04-02T02:33:31.685Z,60.94
2017-04-02T02:34:20.217Z,60.84
2017-04-02T02:35:08.461Z,60.94
2017-04-02T02:35:56.834Z,60.84
2017-04-02T02:36:45.455Z,61.13
2017-04-02T02:37:34.172Z,60.94
2017-04-02T02:38:22.840Z,61.04
2017-04-02T02:39:11.403Z,61.13
2017-04-02T02:40:00.302Z,61.41
2017-04-02T02:40:48.890Z,61.41
2017-04-02T02:41:37.384Z,61.51
2017-04-02T02:42:25.744Z,61.41
2017-04-02T02:44:53.628Z,61.6
2017-04-02T02:45:41.977Z,61.22
2017-04-02T02:46:30.980Z,61.13
2017-04-02T02:47:19.750Z,61.41
2017-04-02T02:48:07.762Z,61.13
2017-04-02T02:48:56.855Z,60.94
2017-04-02T02:49:45.578Z,61.51
2017-04-02T02:50:33.974Z,61.51
2017-04-02T02:51:22.538Z,61.7
2017-04-02T02:52:10.723Z,61.41
2017-04-02T02:52:59.292Z,61.41
2017-04-02T02:53:47.696Z,61.51
2017-04-02T02:54:36.327Z,61.22
2017-04-02T02:55:25.217Z,61.51
2017-04-02T02:56:13.969Z,61.32
2017-04-02T02:57:02.311Z,61.41
2017-04-02T02:57:50.862Z,61.41
2017-04-02T02:58:39.662Z,61.22
2017-04-02T02:59:28.257Z,61.51
2017-04-02T03:00:16.839Z,61.41
2017-04-02T03:01:05.328Z,61.32
2017-04-02T03:01:53.747Z,61.32
2017-04-02T03:02:42.324Z,61.51
2017-04-02T03:03:31.015Z,61.89
2017-04-02T03:04:19.594Z,61.89
2017-04-02T03:05:04.978Z,61.7
2017-04-02T03:05:53.410Z,61.51
2017-04-02T03:06:41.902Z,61.41
2017-04-02T03:07:30.585Z,61.89
2017-04-02T03:08:18.909Z,61.89
2017-04-02T03:09:03.574Z,61.89
2017-04-02T03:11:20.459Z,61.99
2017-04-02T03:12:08.696Z,62.08
2017-04-02T03:12:56.804Z,62.46
2017-04-02T03:13:44.504Z,62.46
2017-04-02T03:14:32.110Z,62.08
2017-04-02T03:15:20.638Z,62.27
2017-04-02T03:16:08.953Z,62.43
2017-04-02T03:16:57.989Z,62.43
2017-04-02T03:17:46.220Z,62.43
2017-04-02T03:18:34.852Z,62.72
2017-04-02T03:19:23.967Z,62.52
2017-04-02T03:20:12.088Z,63.2
2017-04-02T03:21:00.671Z,63
2017-04-02T03:21:49.351Z,63
2017-04-02T03:22:38.044Z,63.2
2017-04-02T03:23:26.986Z,62.88
2017-04-02T03:24:15.246Z,63.2
2017-04-02T03:25:03.854Z,63.29
2017-04-02T03:25:52.716Z,63.17
2017-04-02T03:26:41.444Z,63.35
2017-04-02T03:27:29.676Z,63.29
2017-04-02T03:28:18.590Z,63.54
2017-04-02T03:29:06.878Z,63.07
2017-04-02T03:29:55.964Z,63.45
2017-04-02T03:30:44.015Z,63.45
2017-04-02T03:31:32.682Z,63.54
2017-04-02T03:32:21.343Z,63.07
2017-04-02T03:33:09.946Z,63.17
2017-04-02T03:33:58.674Z,63.35
2017-04-02T03:34:47.481Z,63.54
2017-04-02T03:35:36.062Z,63.45
2017-04-02T03:36:24.333Z,63.35
2017-04-02T03:37:13.293Z,63.45
2017-04-02T03:37:57.848Z,63.26
2017-04-02T03:38:38.289Z,63.92
2017-04-02T03:39:18.641Z,63.54
2017-04-02T03:39:59.068Z,63.92
2017-04-02T03:40:39.454Z,63.83
2017-04-02T03:41:19.860Z,63.92
2017-04-02T03:42:00.248Z,63.45
2017-04-02T03:42:40.678Z,64.02
2017-04-02T03:43:21.099Z,63.64
2017-04-02T03:44:01.428Z,63.45
2017-04-02T03:44:41.892Z,64.02
2017-04-02T03:45:22.311Z,63.92
2017-04-02T03:46:02.733Z,63.92
2017-04-02T03:46:43.092Z,63.92
2017-04-02T03:47:23.508Z,63.92
2017-04-02T03:48:03.846Z,63.83
2017-04-02T03:48:44.268Z,63.83
2017-04-02T03:49:24.683Z,63.92
2017-04-02T03:50:05.057Z,64.12
2017-04-02T03:50:45.509Z,63.92
2017-04-02T03:51:25.866Z,63.83
2017-04-02T03:52:06.317Z,63.64
2017-04-02T03:52:46.751Z,64.12
2017-04-02T03:53:27.151Z,64.12
2017-04-02T03:54:07.528Z,64.02
2017-04-02T03:54:47.936Z,64.12
2017-04-02T03:55:28.387Z,64.12
2017-04-02T03:56:08.800Z,63.92
2017-04-02T03:56:49.161Z,63.83
2017-04-02T03:57:29.590Z,63.92
2017-04-02T03:58:10.049Z,64.02
2017-04-02T03:58:50.421Z,64.02
2017-04-02T03:59:30.884Z,63.92
2017-04-02T04:00:11.268Z,63.92
2017-04-02T04:00:51.659Z,64.12
2017-04-02T04:01:32.076Z,64.31
2017-04-02T04:02:13.394Z,64.21
2017-04-02T04:02:53.793Z,64.4
2017-04-02T04:03:34.218Z,64.31
2017-04-02T04:04:15.314Z,64.4
2017-04-02T04:04:55.723Z,64.59
2017-04-02T04:05:36.116Z,64.5
2017-04-02T04:06:16.512Z,64.5
2017-04-02T04:06:56.844Z,64.5
2017-04-02T04:07:37.268Z,64.5
2017-04-02T04:08:17.731Z,64.5
2017-04-02T04:08:58.092Z,64.5
2017-04-02T04:09:38.532Z,64.5
2017-04-02T04:10:18.960Z,64.69
2017-04-02T04:11:00.283Z,64.59
2017-04-02T04:11:40.662Z,64.97
2017-04-02T04:12:21.051Z,64.78
2017-04-02T04:13:01.483Z,64.78
2017-04-02T04:13:41.955Z,64.5
2017-04-02T04:14:22.392Z,64.69
2017-04-02T04:15:02.737Z,64.69
2017-04-02T04:15:43.132Z,64.59
2017-04-02T04:16:23.575Z,64.69
2017-04-02T04:17:03.981Z,64.87
2017-04-02T04:17:44.342Z,64.62
2017-04-02T04:18:24.765Z,64.62
2017-04-02T04:19:05.164Z,64.59
2017-04-02T04:19:45.624Z,65.07
2017-04-02T04:20:26.045Z,65.2
2017-04-02T04:21:06.424Z,65.2
2017-04-02T04:21:46.869Z,65.29
2017-04-02T04:22:27.274Z,65.29
2017-04-02T04:23:07.673Z,64.72
2017-04-02T04:23:48.102Z,64.62
2017-04-02T04:24:28.559Z,65.2
2017-04-02T04:25:09.055Z,65.29
2017-04-02T04:25:49.366Z,65.2
2017-04-02T04:26:29.780Z,65.2
2017-04-02T04:27:10.172Z,65.2
2017-04-02T04:27:50.594Z,65.26
2017-04-02T04:28:30.999Z,65
2017-04-02T04:29:11.509Z,65.1
2017-04-02T04:29:51.939Z,64.97
2017-04-02T04:30:32.395Z,64.97
2017-04-02T04:31:12.849Z,65
2017-04-02T04:31:53.170Z,64.78
2017-04-02T04:32:33.654Z,64.81
2017-04-02T04:33:14.055Z,65.07
2017-04-02T04:33:54.450Z,65.36
2017-04-02T04:34:34.875Z,65.16
2017-04-02T04:35:15.286Z,65.07
2017-04-02T04:35:55.717Z,65.64
2017-04-02T04:36:37.649Z,65.73
2017-04-02T04:37:20.491Z,65.45
2017-04-02T04:38:00.901Z,65.36
2017-04-02T04:38:41.309Z,65.45
2017-04-02T04:39:22.505Z,65.55
2017-04-02T04:40:05.573Z,65.45
2017-04-02T04:40:46.018Z,65.55
2017-04-02T04:41:28.146Z,65.36
2017-04-02T04:42:08.599Z,65.64
2017-04-02T04:42:50.512Z,65.73
2017-04-02T04:43:31.727Z,65.73
2017-04-02T04:44:12.148Z,65.92
2017-04-02T04:44:53.067Z,66.02
2017-04-02T04:45:35.100Z,65.64
2017-04-02T04:46:15.466Z,65.83
2017-04-02T04:46:57.682Z,66.11
2017-04-02T04:47:38.145Z,66.4
2017-04-02T04:48:18.499Z,66.4
2017-04-02T04:48:58.914Z,66.4
2017-04-02T04:49:39.345Z,66.5
2017-04-02T04:50:20.501Z,66.31
2017-04-02T04:51:01.593Z,66.31
2017-04-02T04:51:43.650Z,66.21
2017-04-02T04:52:24.668Z,66.31
2017-04-02T04:53:05.105Z,66.31
2017-04-02T04:53:45.486Z,66.11
2017-04-02T04:54:25.931Z,66.02
2017-04-02T04:55:06.272Z,66.4
2017-04-02T04:55:46.710Z,66.02
2017-04-02T04:56:27.191Z,66.11
2017-04-02T04:57:07.602Z,66.4
2017-04-02T04:57:47.980Z,66.4
2017-04-02T04:58:28.396Z,66.31
2017-04-02T04:59:08.807Z,66.11
2017-04-02T04:59:49.230Z,65.83
2017-04-02T05:00:29.712Z,65.77
2017-04-02T05:01:10.102Z,65.86
2017-04-02T05:01:50.522Z,65.86
2017-04-02T05:02:30.891Z,65.86
2017-04-02T05:03:11.313Z,66.02
2017-04-02T05:03:51.726Z,65.96
2017-04-02T05:04:32.115Z,66.05
2017-04-02T05:05:12.495Z,66.05
2017-04-02T05:05:52.939Z,65.86
2017-04-02T05:06:33.358Z,65.77
2017-04-02T05:07:13.761Z,65.77
2017-04-02T05:07:54.228Z,66.34
2017-04-02T05:08:34.614Z,65.96
2017-04-02T05:09:14.994Z,65.83
2017-04-02T05:09:55.458Z,65.96
2017-04-02T05:10:35.838Z,66.02
2017-04-02T05:11:16.330Z,66.02
2017-04-02T05:11:56.678Z,66.31
2017-04-02T05:12:37.105Z,66.31
2017-04-02T05:13:17.530Z,66.4
2017-04-02T05:13:57.894Z,66.11
2017-04-02T05:14:38.268Z,66.11
2017-04-02T05:15:18.662Z,66.11
2017-04-02T05:15:59.110Z,66.21
2017-04-02T05:16:39.524Z,66.78
2017-04-02T05:17:19.897Z,66.5
2017-04-02T05:18:00.378Z,66.88
2017-04-02T05:18:40.765Z,66.5
2017-04-02T05:19:21.152Z,66.5
2017-04-02T05:20:01.630Z,66.69
2017-04-02T05:20:42.005Z,67.07
2017-04-02T05:21:22.427Z,66.97
2017-04-02T05:22:02.825Z,67.07
2017-04-02T05:22:43.240Z,67.07
2017-04-02T05:23:23.743Z,67.16
2017-04-02T05:24:04.107Z,67.07
2017-04-02T05:24:44.562Z,67.07
2017-04-02T05:25:25.052Z,67.16
2017-04-02T05:26:05.398Z,67.07
2017-04-02T05:26:45.764Z,66.97
2017-04-02T05:27:26.227Z,66.78
2017-04-02T05:28:06.631Z,66.97
2017-04-02T05:28:46.993Z,67.55
2017-04-02T05:29:27.424Z,67.55
2017-04-02T05:30:07.837Z,67.55
2017-04-02T05:30:48.201Z,67.45
2017-04-02T05:31:28.622Z,67.35
2017-04-02T05:32:09.596Z,67.07
2017-04-02T05:32:49.963Z,67.45
2017-04-02T05:33:30.392Z,67.55
2017-04-02T05:34:10.837Z,67.35
2017-04-02T05:34:51.275Z,67.45
2017-04-02T05:35:31.707Z,67.45
2017-04-02T05:36:12.085Z,67.35
2017-04-02T05:36:52.540Z,67.45
2017-04-02T05:37:32.876Z,67.55
2017-04-02T05:38:13.326Z,67.55
2017-04-02T05:38:53.705Z,67.55
2017-04-02T05:39:34.152Z,67.45
2017-04-02T05:40:14.576Z,67.45
2017-04-02T05:40:54.964Z,67.35
2017-04-02T05:41:35.404Z,67.29
2017-04-02T05:42:15.850Z,67.29
2017-04-02T05:42:56.220Z,67.55
2017-04-02T05:43:36.631Z,67.58
2017-04-02T05:44:17.047Z,67.68
2017-04-02T05:44:57.452Z,67
2017-04-02T05:45:37.902Z,67.1
2017-04-02T05:46:18.303Z,67.1
2017-04-02T05:46:58.728Z,67
2017-04-02T05:47:39.142Z,67.29
2017-04-02T05:48:19.605Z,67.1
2017-04-02T05:49:00.594Z,67.1
2017-04-02T05:49:41.000Z,67.1
2017-04-02T05:50:22.491Z,67.2
2017-04-02T05:51:05.364Z,67
2017-04-02T05:53:22.836Z,67.29
2017-04-02T05:54:08.162Z,66.91
2017-04-02T05:55:59.487Z,67.29
2017-04-02T10:25:09.068Z,41.11
2017-04-02T10:25:59.668Z,40.44
2017-04-02T10:26:50.946Z,41.09
2017-04-02T10:27:41.442Z,41.67
2017-04-02T10:28:32.007Z,41.75
2017-04-02T10:29:20.115Z,42.13
2017-04-02T10:30:13.858Z,42.13
2017-04-02T10:32:38.020Z,42.49
2017-04-02T10:33:27.142Z,42.21
2017-04-02T10:34:17.014Z,42.21
2017-04-02T10:35:06.034Z,42.47
2017-04-02T10:35:56.191Z,42.67
2017-04-02T10:36:46.068Z,43.24
2017-04-02T10:37:35.140Z,42.93
2017-04-02T10:38:25.218Z,43.05
2017-04-02T10:39:14.442Z,43.15
2017-04-02T10:40:06.931Z,42.96
2017-04-02T10:40:57.711Z,43.05
2017-04-02T10:41:48.960Z,42.96
2017-04-02T10:42:39.444Z,43.05
2017-04-02T10:43:28.610Z,43.15
2017-04-02T10:44:18.229Z,42.79
2017-04-02T10:45:06.344Z,42.97
2017-04-02T10:45:55.672Z,42.23
2017-04-02T10:46:43.599Z,42.42
2017-04-02T10:47:32.112Z,42.13
2017-04-02T10:48:20.670Z,41.96
2017-04-02T10:49:09.595Z,41.38
2017-04-02T10:49:58.810Z,41.28
2017-04-02T10:50:52.253Z,41.2
2017-04-02T10:51:35.946Z,40.92
2017-04-02T10:52:26.814Z,40.24
2017-04-02T10:53:20.165Z,40.26
2017-04-02T10:54:12.823Z,39.9
2017-04-02T10:55:03.762Z,39.72
2017-04-02T10:55:52.460Z,38.85
2017-04-02T10:56:41.888Z,37.98
2017-04-02T10:57:30.941Z,38.46
2017-04-02T10:58:20.075Z,37.71
2017-04-02T10:59:08.104Z,37.81
2017-04-02T10:59:56.991Z,37.42
2017-04-02T11:00:45.985Z,37.04
2017-04-02T11:01:35.352Z,36.74
2017-04-02T11:02:24.545Z,37.13
2017-04-02T11:03:13.050Z,37.42
2017-04-02T11:04:02.662Z,37.79
2017-04-02T11:04:52.125Z,37.98
2017-04-02T11:05:40.324Z,37.79
2017-04-02T11:06:29.418Z,37.88
2017-04-02T11:07:19.838Z,37.6
2017-04-02T11:08:08.085Z,37.7
2017-04-02T11:08:56.632Z,37.6
2017-04-02T11:09:46.053Z,37.7
2017-04-02T11:10:35.559Z,37.79
2017-04-02T11:11:23.669Z,37.79
2017-04-02T11:12:12.685Z,37.81
2017-04-02T11:13:01.990Z,37.42
2017-04-02T11:13:50.993Z,37.23
2017-04-02T11:14:39.661Z,37.15
2017-04-02T11:15:28.440Z,37.05
2017-04-02T11:16:19.068Z,36.86
2017-04-02T11:17:07.534Z,36.86
2017-04-02T11:17:56.787Z,36.57
2017-04-02T11:18:46.552Z,36.57
2017-04-02T11:19:34.552Z,36.57
2017-04-02T11:20:23.095Z,36.4
2017-04-02T11:21:12.010Z,36.08
2017-04-02T11:22:01.831Z,36.08
2017-04-02T11:22:46.375Z,36.28
2017-04-02T11:23:26.735Z,36.38
2017-04-02T11:24:07.524Z,36.46
2017-04-02T11:24:48.158Z,36.55
2017-04-02T11:25:28.798Z,36.65
2017-04-02T11:26:13.547Z,36.84
2017-04-02T11:26:54.417Z,36.74
2017-04-02T11:27:35.055Z,36.94
2017-04-02T11:28:16.718Z,36.46
2017-04-02T11:28:57.115Z,36.15
2017-04-02T11:29:37.583Z,36.24
2017-04-02T11:31:30.934Z,36.72
2017-04-02T11:32:20.558Z,36.63
2017-04-02T11:33:08.805Z,36.72
2017-04-02T11:33:58.841Z,36.82
2017-04-02T11:34:48.355Z,36.74
2017-04-02T11:35:37.082Z,36.36
2017-04-02T11:36:26.114Z,36.46
2017-04-02T11:37:16.605Z,36.26
2017-04-02T11:38:04.255Z,36.55
2017-04-02T11:38:52.874Z,36.26
2017-04-02T11:39:43.057Z,36.26
2017-04-02T11:40:31.757Z,35.97
2017-04-02T11:41:21.902Z,36.16
2017-04-02T11:42:10.954Z,36.07
2017-04-02T11:43:00.606Z,36.07
2017-04-02T11:43:50.340Z,36.24
2017-04-02T11:44:38.898Z,36.72
2017-04-02T11:45:27.639Z,36.82
2017-04-02T11:46:16.926Z,37
2017-04-02T11:47:05.017Z,37.48
2017-04-02T11:47:54.453Z,37.75
2017-04-02T11:48:45.817Z,38.79
2017-04-02T11:49:34.508Z,38.6
2017-04-02T11:50:23.704Z,38.79
2017-04-02T11:51:11.846Z,38.87
2017-04-02T11:52:00.923Z,38.78
2017-04-02T11:52:49.643Z,38.87
2017-04-02T11:53:40.834Z,38.87
2017-04-02T11:54:29.342Z,39.14
2017-04-02T11:55:17.657Z,39.43
2017-04-02T11:56:08.231Z,39.53
2017-04-02T11:56:56.929Z,39.62
2017-04-02T11:57:45.777Z,39.62
2017-04-02T11:58:34.321Z,39.64
2017-04-02T11:59:22.806Z,39.16
2017-04-02T12:00:12.995Z,38.79
2017-04-02T12:01:01.445Z,38.71
2017-04-02T12:01:51.590Z,37.87
2017-04-02T12:02:39.911Z,36.92
2017-04-02T12:03:29.133Z,36.55
2017-04-02T12:04:18.436Z,36.08
2017-04-02T12:05:06.939Z,35.44
2017-04-02T12:05:56.909Z,34.77
2017-04-02T12:06:45.621Z,35.07
2017-04-02T12:07:34.924Z,34.3
2017-04-02T12:08:24.097Z,34.2
2017-04-02T12:09:12.765Z,34.12
2017-04-02T12:10:02.057Z,34.31
2017-04-02T12:10:51.598Z,33.75
2017-04-02T12:11:41.477Z,33.46
2017-04-02T12:12:31.014Z,32.99
2017-04-02T12:13:19.413Z,33.18
2017-04-02T12:15:41.012Z,32.62
2017-04-02T12:18:01.947Z,32.15
2017-04-02T12:18:50.929Z,32.15
2017-04-02T12:19:40.013Z,31.77
2017-04-02T12:20:28.614Z,31.77
2017-04-02T12:21:17.341Z,31.01
2017-04-02T12:22:06.683Z,30.33
2017-04-02T12:23:00.680Z,29.85
2017-04-02T12:23:50.074Z,29.93
2017-04-02T12:24:39.308Z,30.12
2017-04-02T12:25:27.649Z,30.22
2017-04-02T12:26:16.231Z,30.41
2017-04-02T12:27:05.537Z,30.41
2017-04-02T12:27:54.463Z,30.22
2017-04-02T12:28:43.616Z,30.32
2017-04-02T12:29:33.138Z,30.22
2017-04-02T12:30:22.396Z,30.01
2017-04-02T12:31:11.965Z,30.19
2017-04-02T12:32:00.907Z,30.38
2017-04-02T12:32:50.312Z,30.58
2017-04-02T12:33:39.787Z,30.77
2017-04-02T12:34:29.170Z,30.58
2017-04-02T12:35:18.123Z,30.48
2017-04-02T12:37:47.285Z,30.01
2017-04-02T12:38:37.883Z,30.21
2017-04-02T12:39:27.425Z,29.9
2017-04-02T12:40:16.424Z,30.01
2017-04-02T12:41:05.292Z,29.51
2017-04-02T12:41:53.769Z,29.71
2017-04-02T12:42:43.411Z,29.61
2017-04-02T12:43:32.441Z,29.8
2017-04-02T12:44:21.155Z,29.8
2017-04-02T12:45:10.245Z,30
2017-04-02T12:46:01.549Z,30.09
2017-04-02T12:46:53.516Z,30.09
2017-04-02T12:50:39.362Z,29.52
2017-04-02T12:51:28.995Z,29.33
2017-04-02T12:52:21.013Z,28.94
2017-04-02T12:53:11.390Z,28.94
2017-04-02T12:54:05.869Z,29.04
2017-04-02T12:55:08.031Z,28.85
2017-04-02T12:55:58.074Z,28.93
2017-04-02T12:56:47.365Z,29.22
2017-04-02T12:57:36.161Z,29.32
2017-04-02T12:58:24.885Z,29.61
2017-04-02T12:59:13.222Z,29.22
2017-04-02T13:00:02.324Z,28.93
2017-04-02T13:00:51.155Z,28.93
2017-04-02T13:01:39.667Z,28.94
2017-04-02T13:02:31.503Z,28.94
2017-04-02T13:03:20.557Z,29.22
2017-04-02T13:04:09.074Z,29.12
2017-04-02T13:04:58.161Z,29.12
2017-04-02T13:05:46.533Z,29.04
2017-04-02T13:06:35.382Z,29.12
2017-04-02T13:07:26.976Z,28.93
2017-04-02T13:08:15.901Z,29.32
2017-04-02T13:09:05.336Z,28.83
2017-04-02T13:09:53.957Z,29.02
2017-04-02T13:10:55.632Z,29.22
2017-04-02T13:11:44.537Z,28.93
2017-04-02T13:12:33.459Z,29.12
2017-04-02T13:13:21.895Z,29.02
2017-04-02T13:14:10.706Z,28.91
2017-04-02T13:15:00.896Z,29.21
2017-04-02T13:15:49.007Z,29.3
2017-04-02T13:16:39.140Z,29.28
2017-04-02T13:17:28.035Z,29.28
2017-04-02T13:18:18.945Z,29.48
2017-04-02T13:19:07.068Z,29.38
2017-04-02T13:19:56.488Z,29.38
2017-04-02T13:20:48.695Z,29.66
2017-04-02T13:21:37.926Z,29.17
2017-04-02T13:22:26.171Z,29.27
2017-04-02T13:23:16.002Z,29.08
2017-04-02T13:24:06.409Z,28.79
2017-04-02T13:24:55.935Z,28.89
2017-04-02T13:25:45.669Z,28.89
2017-04-02T13:26:37.092Z,29.27
2017-04-02T13:27:28.198Z,29.27
2017-04-02T13:28:17.310Z,29.27
2017-04-02T13:29:06.954Z,29.17
2017-04-02T13:29:58.649Z,29.66
2017-04-02T13:30:47.892Z,29.76
2017-04-02T13:31:37.488Z,29.76
2017-04-02T13:32:28.185Z,29.37
2017-04-02T13:33:15.072Z,28.89
2017-04-02T13:34:03.132Z,27.91
2017-04-02T13:34:54.122Z,28.4
2017-04-02T13:35:42.574Z,28.29
2017-04-02T13:36:31.989Z,28.29
2017-04-02T13:37:22.469Z,28.87
2017-04-02T13:38:13.950Z,29.06
2017-04-02T13:39:05.495Z,28.77
2017-04-02T13:39:54.557Z,29.26
2017-04-02T13:40:43.076Z,28.68
2017-04-02T13:41:32.216Z,28.39
2017-04-02T13:42:21.001Z,28.39
2017-04-02T13:43:10.353Z,28.89
2017-04-02T13:43:58.656Z,28.68
2017-04-02T13:44:48.675Z,28.4
2017-04-02T13:45:37.066Z,28.3
2017-04-02T13:46:23.488Z,27.83
2017-04-02T13:47:05.284Z,28.11
2017-04-02T13:47:46.061Z,28.11
2017-04-02T13:48:26.488Z,28.02
2017-04-02T13:49:07.466Z,28.11
2017-04-02T13:49:48.640Z,28.11
2017-04-02T13:50:31.805Z,28.02
2017-04-02T13:51:14.079Z,27.81
2017-04-02T13:51:55.469Z,28.39
2017-04-02T13:52:36.150Z,28.19
2017-04-02T13:53:16.838Z,27.91
2017-04-02T13:53:59.219Z,27.91
2017-04-02T13:54:40.193Z,28.39
2017-04-02T13:55:20.667Z,28.39
2017-04-02T13:56:01.057Z,28.87
2017-04-02T13:56:41.474Z,28.39
2017-04-02T13:57:21.852Z,28.19
2017-04-02T13:58:03.206Z,28.29
2017-04-02T13:58:43.804Z,28.19
2017-04-02T13:59:24.207Z,28.08
2017-04-02T14:00:04.628Z,27.98
2017-04-02T14:00:47.663Z,28.29
2017-04-02T14:01:28.133Z,28.39
2017-04-02T14:02:08.543Z,28.56
2017-04-02T14:02:48.949Z,28.47
2017-04-02T14:03:29.410Z,28.08
2017-04-02T14:04:09.788Z,28.18
2017-04-02T14:04:51.404Z,28.18
2017-04-02T14:05:32.130Z,28.38
2017-04-02T14:06:13.272Z,28.55
2017-04-02T14:06:53.688Z,28.76
2017-04-02T14:07:34.186Z,29.24
2017-04-02T14:08:14.587Z,28.75
2017-04-02T14:08:55.036Z,28.85
2017-04-02T14:09:35.486Z,28.85
2017-04-02T14:10:15.893Z,28.85
2017-04-02T14:10:56.307Z,29.13
2017-04-02T14:11:36.693Z,29.33
2017-04-02T14:12:17.114Z,29.13
2017-04-02T14:12:57.871Z,29.33
2017-04-02T14:13:38.285Z,29.13
2017-04-02T14:14:19.528Z,29.33
2017-04-02T14:14:59.993Z,29.61
2017-04-02T14:15:40.375Z,29.61
2017-04-02T14:16:20.798Z,29.13
2017-04-02T14:17:01.201Z,29.03
2017-04-02T14:17:41.932Z,29.03
2017-04-02T14:18:22.624Z,28.85
2017-04-02T14:19:03.571Z,28.85
2017-04-02T14:19:44.093Z,28.85
2017-04-02T14:20:24.464Z,28.94
2017-04-02T14:21:05.570Z,28.85
2017-04-02T14:21:46.222Z,29.13
2017-04-02T14:22:27.657Z,29.23
2017-04-02T14:23:08.372Z,29.13
2017-04-02T14:23:48.748Z,29.03
2017-04-02T14:24:29.166Z,29.13
2017-04-02T14:25:09.615Z,29.23
2017-04-02T14:25:51.942Z,29.12
2017-04-02T14:26:32.376Z,29.41
2017-04-02T14:27:12.844Z,29.6
2017-04-02T14:27:53.500Z,29.7
2017-04-02T14:28:33.882Z,29.6
2017-04-02T14:29:14.244Z,29.6
2017-04-02T14:29:54.645Z,29.88
2017-04-02T14:30:35.073Z,29.78
2017-04-02T14:31:15.431Z,30.07
2017-04-02T14:31:55.831Z,29.88
2017-04-02T14:32:36.421Z,29.97